Strona główna
METAR-TAF:

METAR-TAF

Lotnisko :

Benson, Anglia

Szerokość geograficzna: 51-37N, Długość geograficzna: 001-05W, wysokość: 63 m

Aktualna obserwacja pogody

Raport powstał 29 minut temu, godzina 14:23 UTC
Wiatr 7 kt od zachodnio-południowy zachód
Temperatura 13°C
Wilgotność 58%
Ciśnienie 1002 hPa
Widzialność 10 km lub więcej
Mało chmury na wysokości 3500 ft
Przerywane chmury na wysokości 4000 ft

METAR: EGUB 041423Z 25007KT 9999 FEW035 BKN040 13/05 Q1002 NOSIG RMK BLU BLU

czas: 15:52 (14:52 UTC)

Prognoza

Raport powstał 1 godzina i 21 minut temu, godzina 13:31 UTC
Prognoza ważna od 04 godzina 15 UTC do 04 godzina 24 UTC
Wiatr 8 kt od zachodnio-północny zachód
Widzialność 10 km lub więcej
Przerywane chmury na wysokości 4000 ft
Prawdopodobieństwo 30% :
Przejściowo
od 04 godzina 16 UTC do 04 godzina 22 UTC
Widzialność: 6000 m
Rozproszone chmury na wysokości 2200 ft
przelotny opad deszczu

TAF: EGUB 041331Z 0415/0424 29008KT 9999 BKN040 PROB30 TEMPO 0416/0422 6000 SHRA SCT022

Obserwacja i prognoza pogody dla ponad 4000 lotnisk (raport METAR i TAF).

Dostępne stacje oznaczono żółtymi i czerwonymi punktami na mapie.

Najedź kursorem aby zobaczyć nazwę stacji.

Kliknij aby zobaczyć obserwacje i prognozy pogody.

Aby zmienić mapę: kliknij na zielony przycisk z czarnym krzyżykiem, aby powiększyć; na zielony przycisk z myślnikiem, aby pomniejszyć; na zielone strzałki, aby przejść do map sąsiednich.


METAR-TAF: